createdAt,value
2022-12-08T09:26:52.529Z,100899.59
2022-12-08T09:29:19.101Z,100907.16
2022-12-08T09:31:45.680Z,100914.91
2022-12-08T09:34:13.069Z,100910.00
2022-12-08T09:36:40.148Z,100909.81
2022-12-08T09:39:07.155Z,100910.81
2022-12-08T09:41:48.429Z,100913.16
2022-12-08T09:44:54.782Z,100915.09
2022-12-08T09:47:33.786Z,100912.00
2022-12-08T09:50:07.982Z,100907.16
2022-12-08T09:53:05.628Z,100901.63
2022-12-08T09:55:40.994Z,100896.13
2022-12-08T09:58:16.127Z,100899.31
2022-12-08T10:00:42.950Z,100888.09
2022-12-08T10:03:16.636Z,100880.97
2022-12-08T10:05:56.432Z,100887.81
2022-12-08T10:08:30.543Z,100885.94
2022-12-08T10:10:59.105Z,100877.53
2022-12-08T10:13:38.312Z,100884.78
2022-12-08T10:16:29.695Z,100880.72
2022-12-08T10:19:02.077Z,100879.03
2022-12-08T10:21:28.981Z,100876.78
2022-12-08T10:24:00.448Z,100873.34
2022-12-08T10:26:26.957Z,100868.31
2022-12-08T10:28:53.598Z,100871.09
2022-12-08T10:31:22.905Z,100870.34
2022-12-08T10:34:13.219Z,100859.94
2022-12-08T10:36:50.075Z,100850.56
2022-12-08T10:39:39.220Z,100851.53
2022-12-08T10:42:14.783Z,100847.47
2022-12-08T10:44:51.645Z,100842.28
2022-12-08T10:47:21.345Z,100837.44
2022-12-08T10:49:47.892Z,100834.53
2022-12-08T10:52:24.304Z,100833.34
2022-12-08T10:54:54.819Z,100836.75
2022-12-08T10:57:23.693Z,100826.53
2022-12-08T10:59:50.516Z,100823.84
2022-12-08T11:02:19.770Z,100817.56
2022-12-08T11:04:47.253Z,100809.53
2022-12-08T11:07:21.097Z,100826.00
2022-12-08T11:09:50.846Z,100819.53
2022-12-08T11:12:21.813Z,100816.00
2022-12-08T11:14:50.416Z,100814.22
2022-12-08T11:17:27.574Z,100820.28
2022-12-08T11:20:06.491Z,100812.81
2022-12-08T11:22:41.648Z,100816.47
2022-12-08T11:25:08.243Z,100812.44
2022-12-08T11:27:36.600Z,100810.22
2022-12-08T11:30:12.579Z,100810.72
2022-12-08T11:32:44.854Z,100812.41
2022-12-08T11:35:21.134Z,100808.88
2022-12-08T11:37:47.687Z,100800.69
2022-12-08T11:40:26.494Z,100800.94
2022-12-08T11:42:59.458Z,100797.28
2022-12-08T11:45:29.009Z,100801.16
2022-12-08T11:48:14.242Z,100800.94
2022-12-08T11:50:50.694Z,100808.25
2022-12-08T11:53:23.502Z,100802.06
2022-12-08T11:55:55.276Z,100793.66
2022-12-08T11:58:27.021Z,100789.91
2022-12-08T12:00:53.654Z,100790.28
2022-12-08T12:03:24.380Z,100786.66
2022-12-08T12:06:54.276Z,100776.66
2022-12-08T12:09:28.327Z,100780.06
2022-12-08T12:12:13.640Z,100780.19
2022-12-08T12:15:04.517Z,100770.41
2022-12-08T12:17:34.022Z,100774.94
2022-12-08T12:20:05.518Z,100763.25
2022-12-08T12:22:35.364Z,100752.63
2022-12-08T12:25:02.594Z,100753.75
2022-12-08T12:27:38.773Z,100759.00
2022-12-08T12:30:13.921Z,100761.09
2022-12-08T12:32:45.655Z,100760.81
2022-12-08T12:35:24.011Z,100760.34
2022-12-08T12:37:58.130Z,100762.66
2022-12-08T12:40:26.645Z,100754.88
2022-12-08T12:42:56.249Z,100751.31
2022-12-08T12:45:31.764Z,100755.81
2022-12-08T12:48:00.795Z,100761.97
2022-12-08T12:50:33.591Z,100764.81
2022-12-08T12:53:10.619Z,100754.81
2022-12-08T12:55:46.359Z,100751.19
2022-12-08T12:58:28.269Z,100752.44
2022-12-08T13:01:13.187Z,100756.19
2022-12-08T13:03:47.237Z,100751.81
2022-12-08T13:06:15.214Z,100749.03
2022-12-08T13:08:53.482Z,100749.59
2022-12-08T13:11:20.283Z,100747.66
2022-12-08T13:13:58.030Z,100744.75
2022-12-08T13:16:26.179Z,100744.59
2022-12-08T13:18:57.045Z,100739.97
2022-12-08T13:21:25.250Z,100735.09
2022-12-08T13:24:17.918Z,100734.59
2022-12-08T13:27:03.491Z,100735.31
2022-12-08T13:29:34.181Z,100744.22
2022-12-08T13:32:04.494Z,100741.53
2022-12-08T13:34:50.161Z,100738.13
2022-12-08T13:37:28.170Z,100743.75
2022-12-08T13:40:30.427Z,100739.88
2022-12-08T13:43:08.858Z,100743.78
2022-12-08T13:46:31.801Z,100748.03
2022-12-08T13:48:56.235Z,100750.31
2022-12-08T13:57:32.789Z,100723.56
2022-12-08T14:00:01.916Z,100720.84
2022-12-08T14:02:39.598Z,100716.44
2022-12-08T14:05:17.976Z,100722.13
2022-12-08T14:07:47.101Z,100717.13
2022-12-08T14:10:18.404Z,100725.78
2022-12-08T14:12:47.082Z,100728.56
2022-12-08T14:15:15.680Z,100734.19
2022-12-08T14:17:51.491Z,100730.06
2022-12-08T14:20:25.644Z,100728.13
2022-12-08T14:22:53.267Z,100727.72
2022-12-08T14:25:20.725Z,100720.53
2022-12-08T14:27:48.082Z,100722.63
2022-12-08T14:30:14.864Z,100726.16
2022-12-08T14:32:49.945Z,100729.28
2022-12-08T14:35:24.316Z,100737.56
2022-12-08T14:37:55.125Z,100727.31
2022-12-08T14:40:24.787Z,100740.47
2022-12-08T14:43:11.054Z,100741.78
2022-12-08T14:45:40.587Z,100727.25
2022-12-08T14:48:22.165Z,100738.84
2022-12-08T14:51:03.509Z,100737.75
2022-12-08T14:53:42.829Z,100741.88
2022-12-08T14:56:39.905Z,100739.78
2022-12-08T14:59:09.502Z,100734.69
2022-12-08T15:01:36.898Z,100738.59
2022-12-08T15:04:10.396Z,100743.97
2022-12-08T15:06:37.116Z,100738.84
2022-12-08T15:09:17.921Z,100738.00
2022-12-08T15:11:44.534Z,100738.38
2022-12-08T15:14:36.147Z,100735.22
2022-12-08T15:17:03.718Z,100731.97
2022-12-08T15:19:31.058Z,100726.84
2022-12-08T15:22:00.245Z,100728.94
2022-12-08T15:24:29.891Z,100736.03
2022-12-08T15:26:56.659Z,100733.03
2022-12-08T15:29:26.422Z,100723.44
2022-12-08T15:31:55.780Z,100734.00
2022-12-08T15:34:22.549Z,100732.81
2022-12-08T15:36:50.355Z,100735.97
2022-12-08T15:39:37.035Z,100742.78
2022-12-08T15:42:06.010Z,100741.59
2022-12-08T15:44:32.968Z,100736.72
2022-12-08T15:47:00.180Z,100734.41
2022-12-08T15:49:26.933Z,100730.25
2022-12-08T15:52:04.973Z,100730.47
2022-12-08T15:54:37.586Z,100724.53
2022-12-08T15:57:19.236Z,100725.75
2022-12-08T15:59:47.015Z,100716.25
2022-12-08T16:02:19.320Z,100715.53
2022-12-08T16:05:33.275Z,100705.03
2022-12-08T16:07:38.167Z,100707.22
2022-12-08T16:10:06.583Z,100719.19
2022-12-08T16:15:57.181Z,100712.97
2022-12-08T16:18:28.860Z,100719.78
2022-12-08T16:21:09.605Z,100726.72
2022-12-08T16:23:44.715Z,100722.00
2022-12-08T16:26:44.692Z,100719.16
2022-12-08T16:29:08.231Z,100730.38
2022-12-08T16:31:34.890Z,100727.69
2022-12-08T16:34:01.529Z,100730.50
2022-12-08T16:36:28.053Z,100734.84
2022-12-08T16:38:54.656Z,100733.63
2022-12-08T16:41:39.856Z,100723.25
2022-12-08T16:44:06.671Z,100727.13
2022-12-08T16:46:33.538Z,100713.03
2022-12-08T16:49:00.209Z,100724.81
2022-12-08T16:51:27.475Z,100716.91
2022-12-08T16:53:58.479Z,100720.09
2022-12-08T16:56:32.237Z,100712.81
2022-12-08T16:59:00.891Z,100716.44
2022-12-08T17:01:27.568Z,100714.75
2022-12-08T17:06:40.804Z,100695.75
2022-12-08T17:09:07.301Z,100706.81
2022-12-08T17:11:39.058Z,100701.09
2022-12-08T17:14:09.183Z,100714.47
2022-12-08T17:16:35.825Z,100714.69
2022-12-08T17:19:02.437Z,100709.31
2022-12-08T17:21:29.141Z,100707.84
2022-12-08T17:23:55.832Z,100708.84
2022-12-08T17:26:22.412Z,100700.19
2022-12-08T17:29:00.540Z,100699.44
2022-12-08T17:31:30.363Z,100698.81
2022-12-08T17:34:02.607Z,100702.97
2022-12-08T17:36:29.557Z,100701.91
2022-12-08T17:38:57.144Z,100698.63
2022-12-08T17:41:23.707Z,100703.28
2022-12-08T17:43:50.316Z,100701.84
2022-12-08T17:46:18.333Z,100708.53
2022-12-08T17:48:45.045Z,100703.56
2022-12-08T17:51:11.711Z,100705.88
2022-12-08T17:53:40.624Z,100704.78
2022-12-08T17:56:19.744Z,100709.19
2022-12-08T17:58:51.347Z,100714.38
2022-12-08T18:01:21.837Z,100697.63
2022-12-08T18:03:48.477Z,100707.44
2022-12-08T18:06:16.104Z,100698.69
2022-12-08T18:08:42.716Z,100696.88
2022-12-08T18:11:19.909Z,100697.72
2022-12-08T18:13:47.946Z,100692.59
2022-12-08T18:16:15.923Z,100690.91
2022-12-08T18:18:42.488Z,100696.38
2022-12-08T18:21:09.747Z,100693.81
2022-12-08T18:23:41.118Z,100702.22
2022-12-08T18:26:09.427Z,100705.00
2022-12-08T18:28:36.371Z,100705.88
2022-12-08T18:31:08.423Z,100705.00
2022-12-08T18:33:35.123Z,100709.50
2022-12-08T18:36:01.625Z,100705.72
2022-12-08T18:38:28.141Z,100710.13
2022-12-08T18:40:54.667Z,100707.19
2022-12-08T18:43:21.205Z,100700.88
2022-12-08T18:45:47.969Z,100704.28
2022-12-08T18:48:14.542Z,100703.31
2022-12-08T18:50:44.702Z,100690.81
2022-12-08T18:53:11.226Z,100692.59
2022-12-08T18:55:37.843Z,100687.41
2022-12-08T18:58:04.404Z,100685.78
2022-12-08T19:00:30.955Z,100685.41
2022-12-08T19:02:57.585Z,100682.00
2022-12-08T19:05:24.299Z,100681.72
2022-12-08T19:07:52.216Z,100674.19
2022-12-08T19:10:18.923Z,100676.22
2022-12-08T19:12:45.480Z,100677.41
2022-12-08T19:15:12.335Z,100671.34
2022-12-08T19:17:38.939Z,100672.44
2022-12-08T19:20:07.560Z,100672.53
2022-12-08T19:22:34.290Z,100672.06
2022-12-08T19:25:00.934Z,100675.00
2022-12-08T19:27:29.029Z,100667.63
2022-12-08T19:29:56.171Z,100668.09
2022-12-08T19:32:22.727Z,100658.75
2022-12-08T19:34:49.338Z,100662.41
2022-12-08T19:37:15.927Z,100664.38
2022-12-08T19:40:01.161Z,100667.16
2022-12-08T19:42:46.421Z,100668.47
2022-12-08T19:45:19.896Z,100655.19
2022-12-08T19:47:46.673Z,100658.00
2022-12-08T19:50:33.303Z,100660.53
2022-12-08T19:53:00.779Z,100665.06
2022-12-08T19:55:27.603Z,100666.63
2022-12-08T19:57:54.562Z,100667.81
2022-12-08T20:00:21.327Z,100671.34
2022-12-08T20:02:48.417Z,100671.47
2022-12-08T20:05:15.760Z,100669.88
2022-12-08T20:07:42.620Z,100672.44
2022-12-08T20:10:17.319Z,100667.19
2022-12-08T20:12:43.813Z,100668.28
2022-12-08T20:15:10.966Z,100669.13
2022-12-08T20:17:38.472Z,100675.47
2022-12-08T20:20:07.906Z,100672.78
2022-12-08T20:22:34.992Z,100680.91
2022-12-08T20:25:02.250Z,100678.34
2022-12-08T20:27:29.205Z,100679.59
2022-12-08T20:29:55.917Z,100676.16
2022-12-08T20:32:22.448Z,100676.38
2022-12-08T20:34:49.137Z,100678.97
2022-12-08T20:37:15.829Z,100677.47
2022-12-08T20:39:42.440Z,100667.53
2022-12-08T20:42:12.700Z,100674.44
2022-12-08T20:44:43.360Z,100671.03
2022-12-08T20:47:11.020Z,100674.19
2022-12-08T20:49:38.126Z,100672.16
2022-12-08T20:52:04.926Z,100676.50
2022-12-08T20:54:31.674Z,100672.06
2022-12-08T20:56:58.474Z,100664.00
2022-12-08T20:59:26.441Z,100667.22
2022-12-08T21:01:53.577Z,100664.88
2022-12-08T21:04:21.278Z,100670.69
2022-12-08T21:06:48.354Z,100670.03
2022-12-08T21:09:15.081Z,100676.56
2022-12-08T21:11:41.878Z,100677.53
2022-12-08T21:14:08.558Z,100675.91
2022-12-08T21:16:35.340Z,100674.34
2022-12-08T21:19:03.616Z,100683.31
2022-12-08T21:21:30.335Z,100684.16
2022-12-08T21:23:57.039Z,100685.25
2022-12-08T21:26:27.492Z,100685.34
2022-12-08T21:28:58.456Z,100678.31
2022-12-08T21:31:31.747Z,100677.56
2022-12-08T21:33:59.826Z,100671.34
2022-12-08T21:36:26.689Z,100675.94
2022-12-08T21:38:54.651Z,100660.91
2022-12-08T21:41:41.644Z,100663.69
2022-12-08T21:44:10.946Z,100665.59
2022-12-08T21:46:38.102Z,100659.53
2022-12-08T21:49:05.082Z,100653.44
2022-12-08T21:51:33.858Z,100645.44
2022-12-08T21:54:00.685Z,100648.34
2022-12-08T21:56:27.402Z,100648.34
2022-12-08T21:58:54.068Z,100640.19
2022-12-08T22:01:20.706Z,100630.59
2022-12-08T22:03:47.877Z,100632.41
2022-12-08T22:06:14.903Z,100628.66
2022-12-08T22:08:42.329Z,100638.16
2022-12-08T22:11:10.411Z,100638.69
2022-12-08T22:13:39.120Z,100634.09
2022-12-08T22:16:08.571Z,100633.97
2022-12-08T22:18:35.730Z,100624.03
2022-12-08T22:21:08.374Z,100626.59
2022-12-08T22:23:34.985Z,100627.34
2022-12-08T22:26:02.548Z,100629.06
2022-12-08T22:28:32.733Z,100615.56
2022-12-08T22:30:59.312Z,100616.47
2022-12-08T22:33:26.134Z,100620.81
2022-12-08T22:36:06.339Z,100624.34
2022-12-08T22:38:36.440Z,100619.97
2022-12-08T22:41:05.149Z,100627.13
2022-12-08T22:43:31.776Z,100626.91
2022-12-08T22:45:58.875Z,100614.50
2022-12-08T22:48:25.501Z,100622.50
2022-12-08T22:50:53.113Z,100616.56
2022-12-08T22:53:20.314Z,100615.72
2022-12-08T22:55:46.930Z,100608.66
2022-12-08T22:58:14.026Z,100613.03
2022-12-08T23:00:40.726Z,100612.81
2022-12-08T23:03:07.521Z,100605.63
2022-12-08T23:05:38.852Z,100604.78
2022-12-08T23:08:07.141Z,100598.47
2022-12-08T23:10:35.523Z,100599.22
2022-12-08T23:13:04.228Z,100592.28
2022-12-08T23:15:31.590Z,100590.47
2022-12-08T23:17:58.190Z,100589.63
2022-12-08T23:20:25.211Z,100583.31
2022-12-08T23:22:51.951Z,100571.75
2022-12-08T23:25:19.053Z,100574.69
2022-12-08T23:27:46.057Z,100571.91
2022-12-08T23:30:13.599Z,100574.69
2022-12-08T23:32:40.487Z,100570.31
2022-12-08T23:35:08.047Z,100568.09
2022-12-08T23:37:34.921Z,100564.03
2022-12-08T23:40:01.877Z,100554.56
2022-12-08T23:42:31.471Z,100550.66
2022-12-08T23:44:58.027Z,100553.53
2022-12-08T23:47:24.852Z,100551.69
2022-12-08T23:49:51.543Z,100558.22
2022-12-08T23:52:18.185Z,100561.22
2022-12-08T23:54:45.035Z,100553.66
2022-12-08T23:57:11.708Z,100550.16
2022-12-08T23:59:38.314Z,100545.66
